Time;durP1;ratioP1;P1;durP2;ratioP2;P2;SDS_P1;SDS_P2;PMS_P1;PMS_P2;Temp;Humidity;BMP_temperature;BMP_pressure;BME280_temperature;BME280_humidity;BME280_pressure;Samples;Min_cycle;Max_cycle;Signal;HPM_P1;HPM_P2
2023/06/06 00:09:56;;;;;;;5.50;2.60;;;;;;;20.97;45.79;99151.69;7339708;39;20356;31
2023/06/06 00:20:41;;;;;;;4.13;2.93;;;;;;;20.77;48.07;99147.56;7264930;40;20248;31
2023/06/06 00:26:02;;;;;;;3.30;2.80;;;;;;;20.77;48.93;99153.88;7323295;39;21243;31
2023/06/06 00:31:38;;;;;;;3.75;2.60;;;;;;;20.64;49.12;99149.41;7313455;39;20310;31
2023/06/06 00:37:13;;;;;;;3.87;2.78;;;;;;;20.68;49.96;99155.25;7315108;39;20285;31
2023/06/06 00:42:33;;;;;;;3.40;2.65;;;;;;;20.56;50.78;99152.50;7285707;39;20268;31
2023/06/06 00:48:09;;;;;;;3.43;3.13;;;;;;;20.53;51.38;99143.91;7274504;40;21374;31
2023/06/06 00:58:38;;;;;;;4.65;2.90;;;;;;;20.37;51.90;99160.97;7240721;40;20264;31
2023/06/06 01:04:17;;;;;;;3.33;2.95;;;;;;;20.25;52.50;99155.41;7314670;39;21037;31
2023/06/06 01:15:12;;;;;;;4.10;3.10;;;;;;;20.27;53.07;99161.50;7319539;39;20378;31
2023/06/06 01:36:40;;;;;;;4.65;3.40;;;;;;;20.05;55.11;99163.84;7295208;39;20251;31
2023/06/06 02:08:13;;;;;;;5.37;4.03;;;;;;;19.70;54.50;99163.59;7368966;39;20285;31
2023/06/06 02:18:55;;;;;;;4.20;3.70;;;;;;;19.78;53.74;99167.97;7340192;39;20251;31
2023/06/06 02:24:30;;;;;;;4.60;3.50;;;;;;;19.54;56.60;99169.66;7356155;39;20358;31
2023/06/06 03:06:12;;;;;;;4.92;4.00;;;;;;;18.96;56.03;99184.59;7334492;39;21193;31
2023/06/06 03:11:46;;;;;;;4.93;3.80;;;;;;;18.92;56.59;99182.31;7334250;39;20432;31
2023/06/06 03:27:35;;;;;;;4.10;3.50;;;;;;;18.78;56.96;99197.12;7383764;39;21258;31
2023/06/06 03:38:15;;;;;;;5.43;3.63;;;;;;;18.88;56.95;99199.38;7364090;39;20266;31
2023/06/06 03:43:52;;;;;;;4.07;3.47;;;;;;;18.84;57.78;99203.59;7339073;39;21029;31
2023/06/06 03:54:36;;;;;;;3.95;3.50;;;;;;;18.84;55.25;99209.06;7297618;40;20267;31
2023/06/06 04:46:52;;;;;;;3.83;3.30;;;;;;;18.54;57.24;99225.19;7424994;39;20353;31
2023/06/06 05:13:09;;;;;;;3.50;3.20;;;;;;;19.10;54.87;99230.75;7336642;39;20251;31
2023/06/06 05:18:42;;;;;;;4.13;3.30;;;;;;;19.24;55.57;99232.34;7336292;39;20257;31
2023/06/06 05:39:26;;;;;;;3.90;3.50;;;;;;;19.75;52.82;99240.34;7366268;39;21138;31
2023/06/06 05:45:03;;;;;;;4.88;3.92;;;;;;;19.86;53.52;99249.72;7396602;39;21200;31
2023/06/06 05:50:38;;;;;;;4.10;3.50;;;;;;;20.05;51.89;99251.41;7293931;39;20268;31
2023/06/06 05:55:58;;;;;;;4.17;3.33;;;;;;;20.10;52.25;99251.56;7237228;40;20238;31
2023/06/06 06:01:34;;;;;;;4.78;3.72;;;;;;;20.13;52.10;99258.50;7238088;39;21185;31
2023/06/06 07:03:56;;;;;;;3.92;3.00;;;;;;;21.42;50.67;99269.94;7429646;39;20261;31
2023/06/06 07:09:14;;;;;;;5.03;3.60;;;;;;;21.66;49.78;99275.47;7175238;39;20247;31
2023/06/06 07:14:33;;;;;;;5.32;3.40;;;;;;;21.70;49.06;99271.19;7362118;39;20374;31
2023/06/06 07:25:17;;;;;;;4.90;3.45;;;;;;;22.21;48.45;99279.56;7340233;39;20289;31
2023/06/06 07:41:04;;;;;;;4.90;3.30;;;;;;;22.70;47.97;99288.38;7332018;39;20255;31
2023/06/06 08:07:41;;;;;;;8.18;3.53;;;;;;;23.38;45.70;99274.63;7331539;39;20251;31
2023/06/06 08:13:03;;;;;;;5.40;3.50;;;;;;;23.51;45.70;99279.84;7342285;39;21400;31
2023/06/06 08:18:37;;;;;;;4.43;3.50;;;;;;;23.48;45.37;99274.81;7361485;39;21358;31
2023/06/06 08:24:14;;;;;;;7.20;3.67;;;;;;;23.68;45.54;99264.16;7334900;39;21205;31
2023/06/06 08:29:50;;;;;;;4.63;3.60;;;;;;;23.97;43.89;99266.81;7268760;39;21515;31
2023/06/06 08:50:57;;;;;;;4.90;3.50;;;;;;;24.50;43.20;99289.12;7337081;39;20243;31
2023/06/06 08:56:33;;;;;;;5.60;3.45;;;;;;;24.57;41.55;99277.94;7343375;39;20427;31
2023/06/06 09:02:12;;;;;;;5.55;3.55;;;;;;;24.79;43.00;99281.53;7393909;39;21486;31
2023/06/06 09:07:46;;;;;;;4.90;3.53;;;;;;;25.01;41.64;99284.31;7334299;39;20252;31
2023/06/06 09:13:23;;;;;;;4.37;3.50;;;;;;;24.95;40.36;99280.66;7293251;40;20249;31
2023/06/06 09:29:42;;;;;;;5.60;3.60;;;;;;;25.39;40.43;99283.34;7259957;39;21043;31
2023/06/06 09:40:23;;;;;;;3.75;3.42;;;;;;;25.78;40.46;99275.72;7291731;39;20324;31
2023/06/06 09:51:02;;;;;;;3.47;3.17;;;;;;;26.01;39.48;99267.91;7348946;39;20423;31
2023/06/06 10:07:22;;;;;;;4.97;3.20;;;;;;;26.22;37.82;99257.84;7360960;39;20251;31
2023/06/06 10:12:55;;;;;;;4.72;3.40;;;;;;;26.35;38.25;99257.38;7333230;39;21136;31
2023/06/06 10:23:35;;;;;;;4.72;3.20;;;;;;;26.73;37.43;99264.47;7292888;39;20254;31
2023/06/06 10:50:14;;;;;;;3.90;3.20;;;;;;;27.19;34.76;99236.97;7360371;39;21138;31
2023/06/06 11:00:55;;;;;;;3.78;3.37;;;;;;;27.36;34.64;99234.78;7356186;39;20284;31
2023/06/06 11:11:39;;;;;;;4.70;3.10;;;;;;;27.44;33.72;99225.94;7320119;39;20420;31
2023/06/06 11:17:17;;;;;;;4.00;3.10;;;;;;;27.51;35.17;99223.78;7338423;39;20267;31
2023/06/06 11:33:02;;;;;;;5.50;3.20;;;;;;;27.69;33.04;99214.06;7306403;39;20243;31
2023/06/06 11:38:37;;;;;;;9.50;3.20;;;;;;;27.84;33.39;99225.13;7265750;39;21083;31
2023/06/06 11:49:18;;;;;;;5.93;3.13;;;;;;;27.93;32.91;99209.63;7313901;39;20256;31
2023/06/06 11:54:40;;;;;;;8.02;3.30;;;;;;;27.96;32.49;99197.12;7313957;39;21209;31
2023/06/06 12:00:17;;;;;;;4.05;2.97;;;;;;;28.07;32.45;99193.25;7321274;39;21126;31
2023/06/06 12:05:52;;;;;;;4.15;3.45;;;;;;;28.39;32.36;99204.81;7315500;39;21140;31
2023/06/06 12:11:39;;;;;;;4.60;3.40;;;;;;;28.25;33.43;99202.94;7302391;39;20252;31
2023/06/06 12:17:19;;;;;;;7.22;3.67;;;;;;;28.56;33.27;99194.22;7283871;39;21048;31
2023/06/06 12:22:53;;;;;;;4.45;3.35;;;;;;;28.75;31.78;99191.66;7265182;39;20999;31
2023/06/06 12:28:15;;;;;;;4.50;3.30;;;;;;;28.69;30.26;99187.22;7222424;40;21191;31
2023/06/06 12:34:00;;;;;;;6.15;3.40;;;;;;;28.83;30.35;99185.50;7275375;39;21104;31
2023/06/06 12:39:33;;;;;;;6.67;3.30;;;;;;;28.90;29.65;99176.88;7274591;39;21052;31
2023/06/06 12:44:54;;;;;;;4.35;3.30;;;;;;;29.03;28.52;99170.69;7321996;39;20365;31
2023/06/06 12:50:28;;;;;;;5.03;3.72;;;;;;;28.92;28.92;99172.69;7311412;39;20292;31
2023/06/06 12:56:06;;;;;;;3.50;3.10;;;;;;;28.94;29.07;99172.41;7283835;40;20260;31
2023/06/06 13:01:39;;;;;;;5.10;3.65;;;;;;;28.69;28.24;99165.03;7258224;40;21385;31
2023/06/06 13:07:14;;;;;;;5.90;3.40;;;;;;;28.51;29.15;99163.72;7299830;39;21295;31
2023/06/06 13:12:53;;;;;;;6.00;3.60;;;;;;;28.91;29.40;99161.88;7157762;40;20385;31
2023/06/06 13:23:32;;;;;;;5.75;3.30;;;;;;;28.99;29.92;99153.78;7200954;40;20240;31
2023/06/06 13:34:13;;;;;;;7.37;3.50;;;;;;;29.37;28.71;99149.34;7377938;39;20260;31
2023/06/06 13:39:43;;;;;;;8.25;3.70;;;;;;;29.28;29.31;99142.72;7356190;39;21338;31
2023/06/06 13:45:20;;;;;;;9.30;3.92;;;;;;;29.43;28.89;99144.59;7267862;40;21466;31
2023/06/06 13:50:53;;;;;;;7.32;3.48;;;;;;;29.45;28.90;99145.94;7278937;40;21284;31
2023/06/06 13:56:13;;;;;;;8.90;3.60;;;;;;;29.45;27.68;99143.16;7245575;40;21298;31
2023/06/06 14:01:50;;;;;;;4.55;3.30;;;;;;;29.45;27.85;99125.66;7250973;40;21260;31
2023/06/06 14:07:24;;;;;;;5.47;3.35;;;;;;;29.41;28.33;99125.41;7237085;40;20253;31
2023/06/06 14:13:00;;;;;;;4.70;3.20;;;;;;;29.40;28.17;99112.66;7221009;40;21286;31
2023/06/06 14:18:35;;;;;;;5.50;3.35;;;;;;;29.46;28.56;99122.59;7180338;40;21376;31
2023/06/06 14:24:08;;;;;;;6.22;3.10;;;;;;;29.43;28.53;99114.03;7280652;39;21250;31
2023/06/06 14:29:29;;;;;;;7.85;3.67;;;;;;;29.13;28.78;99109.53;7064186;40;20311;31
2023/06/06 14:35:01;;;;;;;4.03;3.28;;;;;;;29.01;27.56;99101.56;7267682;39;21296;31
2023/06/06 14:40:34;;;;;;;4.70;3.10;;;;;;;29.23;28.72;99098.31;7274945;39;20265;31
2023/06/06 14:45:52;;;;;;;5.20;3.25;;;;;;;29.33;28.03;99103.84;7263570;39;20394;31
2023/06/06 14:51:09;;;;;;;5.62;3.53;;;;;;;29.30;27.02;99101.66;7219261;40;21302;31
2023/06/06 14:56:41;;;;;;;4.50;3.23;;;;;;;29.44;27.85;99099.81;7205952;40;21266;31
2023/06/06 15:02:13;;;;;;;4.50;3.03;;;;;;;29.21;26.50;99103.34;7309015;39;21172;31
2023/06/06 15:07:32;;;;;;;5.87;3.28;;;;;;;29.17;26.85;99096.72;7302176;39;21232;31
2023/06/06 15:13:05;;;;;;;4.93;2.90;;;;;;;29.25;26.93;99101.66;7326314;39;20279;31
2023/06/06 15:18:40;;;;;;;4.90;3.08;;;;;;;29.12;26.18;99091.22;7303471;39;20342;31
2023/06/06 15:24:28;;;;;;;;;;;;;;;;;;;;;
2023/06/06 15:29:53;;;;;;;7.80;3.10;;;;;;;29.06;24.63;99098.75;7203478;40;20900;31
2023/06/06 15:35:10;;;;;;;4.62;3.28;;;;;;;29.11;24.19;99092.31;7181499;40;20259;31
2023/06/06 15:40:27;;;;;;;5.25;3.00;;;;;;;29.15;24.88;99090.62;7217451;40;20306;31
2023/06/06 15:46:02;;;;;;;3.95;2.90;;;;;;;28.98;24.44;99074.38;7239086;40;21435;31
2023/06/06 15:56:25;;;;;;;4.53;3.10;;;;;;;29.22;25.20;99080.03;7335152;39;20256;31
2023/06/06 16:01:58;;;;;;;5.18;3.03;;;;;;;29.08;24.64;99073.47;7370672;39;20271;31
2023/06/06 16:07:15;;;;;;;5.50;3.33;;;;;;;28.98;24.71;99068.00;7343289;39;20323;31
2023/06/06 16:12:47;;;;;;;5.87;2.87;;;;;;;29.02;25.49;99071.84;7333148;39;20364;31
2023/06/06 16:18:20;;;;;;;3.20;2.90;;;;;;;28.84;24.56;99062.28;7316934;39;21272;31
2023/06/06 16:23:55;;;;;;;4.40;3.20;;;;;;;28.80;24.37;99069.53;7261876;40;20299;31
2023/06/06 16:34:35;;;;;;;8.10;3.12;;;;;;;28.49;28.04;99070.81;7243096;40;20395;31
2023/06/06 16:44:57;;;;;;;8.25;3.40;;;;;;;28.34;29.79;99079.22;7292758;39;20409;31
2023/06/06 16:50:28;;;;;;;3.93;3.30;;;;;;;27.96;30.42;99089.88;7319307;39;21163;31
2023/06/06 16:56:00;;;;;;;5.00;3.22;;;;;;;27.71;31.38;99081.66;7263196;40;21458;31
2023/06/06 17:01:36;;;;;;;6.10;3.70;;;;;;;27.53;31.25;99094.16;7275701;40;20619;31
2023/06/06 17:07:12;;;;;;;5.40;3.55;;;;;;;27.36;32.38;99096.34;7204494;40;21346;31
2023/06/06 17:12:30;;;;;;;4.37;3.17;;;;;;;27.18;31.79;99086.69;7275673;40;20267;31
2023/06/06 17:17:50;;;;;;;4.50;3.40;;;;;;;26.94;32.53;99096.66;7276544;40;21187;31
2023/06/06 17:23:23;;;;;;;3.45;3.12;;;;;;;26.78;33.61;99097.69;7283529;40;20750;31
2023/06/06 17:28:58;;;;;;;5.53;3.42;;;;;;;26.87;33.57;99096.91;7280647;39;21616;31
2023/06/06 17:39:36;;;;;;;3.97;3.57;;;;;;;26.68;33.60;99089.41;7275148;40;20275;31
2023/06/06 17:44:54;;;;;;;5.20;3.40;;;;;;;26.46;33.99;99097.88;7237004;40;20307;31
2023/06/06 17:50:26;;;;;;;5.65;3.40;;;;;;;26.43;34.01;99099.28;7297991;39;21596;31
2023/06/06 17:55:59;;;;;;;4.47;3.35;;;;;;;26.25;34.32;99099.75;7257978;40;21283;31
2023/06/06 18:01:34;;;;;;;3.78;2.85;;;;;;;26.31;34.19;99103.38;7252668;39;21315;31
2023/06/06 18:06:54;;;;;;;3.80;3.00;;;;;;;26.33;33.61;99098.41;7297742;39;20353;31
2023/06/06 18:12:30;;;;;;;5.72;3.40;;;;;;;26.24;33.91;99103.63;7256993;40;21452;31
2023/06/06 18:18:02;;;;;;;3.87;2.87;;;;;;;26.08;33.92;99104.63;7276793;39;21286;31
2023/06/06 18:23:37;;;;;;;3.97;3.33;;;;;;;25.99;34.79;99112.59;7278018;39;21301;31
2023/06/06 18:29:13;;;;;;;5.00;3.35;;;;;;;25.88;34.80;99113.66;7295227;39;20316;31
2023/06/06 18:45:14;;;;;;;3.90;3.30;;;;;;;25.67;36.81;99128.44;7243530;40;21137;31
2023/06/06 18:55:51;;;;;;;4.13;3.30;;;;;;;25.50;36.62;99133.25;7377781;39;20282;31
2023/06/06 19:06:36;;;;;;;6.30;3.37;;;;;;;25.17;37.22;99141.81;7338373;39;20279;31
2023/06/06 19:17:18;;;;;;;7.10;3.85;;;;;;;24.77;37.59;99167.88;7357909;39;20335;31
2023/06/06 19:22:56;;;;;;;6.90;4.00;;;;;;;24.73;37.95;99169.50;7338659;39;21257;31
2023/06/06 19:28:12;;;;;;;5.80;3.50;;;;;;;24.57;39.81;99173.19;7296111;39;21370;31
2023/06/06 19:38:49;;;;;;;9.65;3.55;;;;;;;24.16;40.20;99186.44;7294254;39;20268;31
2023/06/06 19:44:25;;;;;;;4.72;3.37;;;;;;;23.82;40.98;99201.34;7314232;39;20467;31
2023/06/06 19:49:57;;;;;;;6.90;3.60;;;;;;;23.73;40.85;99202.84;7316280;39;21271;31
2023/06/06 19:55:31;;;;;;;4.90;3.20;;;;;;;23.71;40.48;99213.28;7296818;39;21247;31
2023/06/06 20:01:03;;;;;;;3.83;2.90;;;;;;;23.61;39.95;99222.19;7308947;39;20386;31
2023/06/06 20:06:20;;;;;;;10.25;3.50;;;;;;;23.60;39.83;99234.31;7258257;40;21320;31
2023/06/06 20:11:53;;;;;;;5.30;2.92;;;;;;;23.53;39.40;99230.03;7249329;39;21394;31
2023/06/06 20:17:10;;;;;;;6.30;2.90;;;;;;;23.49;38.34;99242.62;7235999;40;20355;31
2023/06/06 20:22:28;;;;;;;7.03;2.90;;;;;;;23.46;38.62;99241.22;7255443;40;20260;31
2023/06/06 20:28:00;;;;;;;4.03;2.70;;;;;;;23.33;38.46;99234.09;7269287;40;20291;31
2023/06/06 20:33:35;;;;;;;7.65;2.80;;;;;;;23.23;39.21;99241.31;7298847;39;21332;31
2023/06/06 20:39:14;;;;;;;4.17;2.93;;;;;;;23.16;38.86;99237.91;7295717;40;20322;31
2023/06/06 20:44:43;;;;;;;5.00;2.70;;;;;;;23.08;38.89;99238.28;7245420;40;21301;31
2023/06/06 20:50:15;;;;;;;3.75;2.85;;;;;;;23.04;39.12;99250.84;7266183;39;20355;31
2023/06/06 20:55:51;;;;;;;5.80;2.80;;;;;;;22.88;39.16;99249.72;7254579;40;21325;31
2023/06/06 21:01:24;;;;;;;4.57;2.50;;;;;;;22.82;37.93;99247.94;7252014;40;21232;31
2023/06/06 21:06:42;;;;;;;3.52;2.62;;;;;;;22.75;38.17;99255.50;7241431;40;20254;31
2023/06/06 21:11:59;;;;;;;5.70;2.70;;;;;;;22.54;38.26;99250.62;7224952;40;20334;31
2023/06/06 21:17:35;;;;;;;3.08;2.76;;;;;;;22.39;38.35;99256.63;7288097;39;20286;31
2023/06/06 21:28:14;;;;;;;4.86;2.78;;;;;;;22.21;38.70;99249.38;7343640;39;20255;31
2023/06/06 21:33:50;;;;;;;3.78;2.60;;;;;;;22.25;38.28;99247.81;7154693;39;20243;31
2023/06/06 21:39:08;;;;;;;5.63;2.80;;;;;;;22.16;38.15;99257.50;7314562;39;20374;31
2023/06/06 21:44:39;;;;;;;6.90;2.83;;;;;;;22.20;38.68;99261.47;7381794;39;20266;31
2023/06/06 21:50:22;;;;;;;9.67;2.70;;;;;;;22.19;38.65;99254.28;7254196;40;21248;31
2023/06/06 21:55:54;;;;;;;4.37;2.57;;;;;;;22.18;38.95;99247.13;7222395;40;21243;31
2023/06/06 22:01:29;;;;;;;5.35;2.70;;;;;;;22.16;39.01;99242.94;7246979;40;21282;31
2023/06/06 22:07:05;;;;;;;3.15;2.45;;;;;;;22.09;38.88;99243.06;7223091;40;21166;31
2023/06/06 22:12:23;;;;;;;2.70;2.40;;;;;;;22.07;39.04;99247.13;7234375;40;21370;31
2023/06/06 22:17:54;;;;;;;3.50;2.70;;;;;;;21.87;39.30;99245.53;7247805;40;20793;31
2023/06/06 22:28:35;;;;;;;5.10;2.65;;;;;;;21.70;39.86;99244.59;7268641;39;20398;31
2023/06/06 22:33:52;;;;;;;4.95;2.95;;;;;;;21.67;39.82;99257.94;7277347;39;21321;31
2023/06/06 22:39:23;;;;;;;4.05;2.70;;;;;;;21.59;39.59;99256.34;7293876;39;20374;31
2023/06/06 22:44:57;;;;;;;2.70;2.30;;;;;;;21.59;39.56;99259.09;7269614;39;21254;31
2023/06/06 22:50:29;;;;;;;2.80;2.60;;;;;;;21.51;39.55;99263.03;7241584;40;20382;31
2023/06/06 22:55:46;;;;;;;3.10;2.80;;;;;;;21.35;39.35;99260.16;7303938;39;21355;31
2023/06/06 23:01:19;;;;;;;3.10;2.45;;;;;;;21.29;40.35;99253.69;7287469;39;20470;31
2023/06/06 23:06:54;;;;;;;3.28;2.37;;;;;;;21.21;40.89;99251.28;7290120;39;20269;31
2023/06/06 23:12:13;;;;;;;4.80;2.60;;;;;;;21.21;40.73;99248.53;7259504;40;21353;31
2023/06/06 23:17:46;;;;;;;3.83;2.83;;;;;;;21.06;40.46;99248.91;7271289;40;20381;31
2023/06/06 23:23:02;;;;;;;5.20;2.77;;;;;;;21.10;40.21;99263.03;7264299;40;21202;31
2023/06/06 23:28:19;;;;;;;5.60;2.80;;;;;;;21.02;40.58;99258.69;7284112;39;21153;31
2023/06/06 23:33:52;;;;;;;4.10;2.90;;;;;;;20.88;41.26;99259.13;7318756;39;20407;31
2023/06/06 23:39:25;;;;;;;3.50;2.53;;;;;;;20.70;41.75;99259.97;7272024;40;20268;31
2023/06/06 23:50:02;;;;;;;4.50;2.40;;;;;;;20.76;42.64;99264.53;7293610;39;20349;31
